createdAt,value
2022-09-28T00:00:25.518Z,0.00
2022-09-28T00:01:25.773Z,0.00
2022-09-28T00:02:25.704Z,0.00
2022-09-28T00:03:25.488Z,0.00
2022-09-28T00:04:25.485Z,0.00
2022-09-28T00:05:25.468Z,0.00
2022-09-28T00:06:25.454Z,0.00
2022-09-28T00:07:25.543Z,0.00
2022-09-28T00:08:25.432Z,0.00
2022-09-28T00:09:26.433Z,0.00
2022-09-28T00:10:25.410Z,0.00
2022-09-28T00:11:25.406Z,0.00
2022-09-28T00:12:25.393Z,0.00
2022-09-28T00:13:25.416Z,0.00
2022-09-28T00:14:25.361Z,0.00
2022-09-28T00:15:25.350Z,0.00
2022-09-28T00:16:26.147Z,0.00
2022-09-28T00:17:25.347Z,0.00
2022-09-28T00:18:25.306Z,0.00
2022-09-28T00:19:25.363Z,0.00
2022-09-28T00:20:25.287Z,0.00
2022-09-28T00:21:25.272Z,0.00
2022-09-28T00:22:25.271Z,0.00
2022-09-28T00:23:25.269Z,0.00
2022-09-28T00:24:27.797Z,0.00
2022-09-28T00:25:25.287Z,0.00
2022-09-28T00:26:25.216Z,0.00
2022-09-28T00:27:25.221Z,0.00
2022-09-28T00:28:25.212Z,0.00
2022-09-28T00:29:25.253Z,0.00
2022-09-28T00:30:25.173Z,0.00
2022-09-28T00:31:25.371Z,0.00
2022-09-28T00:32:25.156Z,0.00
2022-09-28T00:33:25.140Z,0.00
2022-09-28T00:34:25.139Z,0.00
2022-09-28T00:35:25.122Z,0.00
2022-09-28T00:36:25.156Z,0.00
2022-09-28T00:37:25.418Z,0.00
2022-09-28T00:38:25.089Z,0.00
2022-09-28T00:39:25.127Z,0.00
2022-09-28T00:40:25.161Z,0.00
2022-09-28T00:41:25.106Z,0.00
2022-09-28T00:42:25.043Z,0.00
2022-09-28T00:43:25.105Z,0.00
2022-09-28T00:44:25.020Z,0.00
2022-09-28T00:45:25.353Z,0.00
2022-09-28T00:46:25.034Z,0.00
2022-09-28T00:47:24.998Z,0.00
2022-09-28T00:48:25.557Z,0.00
2022-09-28T00:49:25.002Z,0.00
2022-09-28T00:50:25.005Z,0.00
2022-09-28T00:51:24.940Z,0.00
2022-09-28T00:52:24.927Z,0.00
2022-09-28T00:53:24.920Z,0.00
2022-09-28T00:54:24.900Z,0.00
2022-09-28T00:55:25.004Z,0.00
2022-09-28T00:56:24.887Z,0.00
2022-09-28T00:57:24.867Z,0.00
2022-09-28T00:58:24.886Z,0.00
2022-09-28T00:59:25.429Z,0.00
2022-09-28T01:00:24.840Z,0.00
2022-09-28T01:01:24.894Z,0.00
2022-09-28T01:02:25.903Z,0.00
2022-09-28T01:03:24.861Z,0.00
2022-09-28T01:04:29.213Z,0.00
2022-09-28T01:05:24.799Z,0.00
2022-09-28T01:06:24.759Z,0.00
2022-09-28T01:07:24.814Z,0.00
2022-09-28T01:08:24.824Z,0.00
2022-09-28T01:09:24.784Z,0.00
2022-09-28T01:10:24.717Z,0.00
2022-09-28T01:11:24.735Z,0.00
2022-09-28T01:12:24.698Z,0.00
2022-09-28T01:13:24.724Z,0.00
2022-09-28T01:14:24.705Z,0.00
2022-09-28T01:15:24.673Z,0.00
2022-09-28T01:16:24.796Z,0.00
2022-09-28T01:17:24.669Z,0.00
2022-09-28T01:18:24.636Z,0.00
2022-09-28T01:19:24.667Z,0.00
2022-09-28T01:20:24.621Z,0.00
2022-09-28T01:21:26.112Z,0.00
2022-09-28T01:22:24.606Z,0.00
2022-09-28T01:23:24.585Z,0.00
2022-09-28T01:24:24.589Z,0.00
2022-09-28T01:25:24.653Z,0.00
2022-09-28T01:26:24.543Z,0.00
2022-09-28T01:27:24.558Z,0.00
2022-09-28T01:28:24.560Z,0.00
2022-09-28T01:29:24.542Z,0.00
2022-09-28T01:30:24.500Z,0.00
2022-09-28T01:31:24.702Z,0.00
2022-09-28T01:32:25.085Z,0.00
2022-09-28T01:33:24.493Z,0.00
2022-09-28T01:34:24.458Z,0.00
2022-09-28T01:35:24.441Z,0.00
2022-09-28T01:36:24.429Z,0.00
2022-09-28T01:37:24.471Z,0.00
2022-09-28T01:38:24.409Z,0.00
2022-09-28T01:39:24.420Z,0.00
2022-09-28T01:40:24.417Z,0.00
2022-09-28T01:41:24.408Z,0.00
2022-09-28T01:42:24.384Z,0.00
2022-09-28T01:43:24.413Z,0.00
2022-09-28T01:44:24.351Z,0.00
2022-09-28T01:45:24.353Z,0.00
2022-09-28T01:46:24.309Z,0.00
2022-09-28T01:47:24.320Z,0.00
2022-09-28T01:48:24.312Z,0.00
2022-09-28T01:49:24.355Z,0.00
2022-09-28T01:50:24.270Z,0.00
2022-09-28T01:51:25.079Z,0.00
2022-09-28T01:52:24.256Z,0.00
2022-09-28T01:53:24.279Z,0.00
2022-09-28T01:54:24.234Z,0.00
2022-09-28T01:55:24.362Z,0.00
2022-09-28T01:56:24.210Z,0.00
2022-09-28T01:57:24.201Z,0.00
2022-09-28T01:58:24.187Z,0.00
2022-09-28T01:59:24.171Z,0.00
2022-09-28T02:00:24.174Z,0.00
2022-09-28T02:01:24.179Z,0.00
2022-09-28T02:02:24.189Z,0.00
2022-09-28T02:03:24.139Z,0.00
2022-09-28T02:04:24.126Z,0.00
2022-09-28T02:05:24.192Z,0.00
2022-09-28T02:06:24.106Z,0.00
2022-09-28T02:07:24.128Z,0.00
2022-09-28T02:08:24.070Z,0.00
2022-09-28T02:09:24.057Z,0.00
2022-09-28T02:10:24.370Z,0.00
2022-09-28T02:11:24.688Z,0.00
2022-09-28T02:12:24.015Z,0.00
2022-09-28T02:13:24.060Z,0.00
2022-09-28T02:14:24.053Z,0.00
2022-09-28T02:15:24.077Z,0.00
2022-09-28T02:16:24.198Z,0.00
2022-09-28T02:17:23.993Z,0.00
2022-09-28T02:18:23.994Z,0.00
2022-09-28T02:19:23.987Z,0.00
2022-09-28T02:20:23.992Z,0.00
2022-09-28T02:21:24.008Z,0.00
2022-09-28T02:22:23.932Z,0.00
2022-09-28T02:23:23.919Z,0.00
2022-09-28T02:24:23.885Z,0.00
2022-09-28T02:25:23.916Z,0.00
2022-09-28T02:26:23.869Z,0.00
2022-09-28T02:27:23.875Z,0.00
2022-09-28T02:28:23.873Z,0.00
2022-09-28T02:29:23.863Z,0.00
2022-09-28T02:30:23.842Z,0.00
2022-09-28T02:31:23.976Z,0.00
2022-09-28T02:32:23.903Z,0.00
2022-09-28T02:33:23.810Z,0.00
2022-09-28T02:34:23.893Z,0.00
2022-09-28T02:35:23.770Z,0.00
2022-09-28T02:36:23.756Z,0.00
2022-09-28T02:37:23.795Z,0.00
2022-09-28T02:38:24.341Z,0.00
2022-09-28T02:39:23.741Z,0.00
2022-09-28T02:40:23.817Z,0.00
2022-09-28T02:41:23.736Z,0.00
2022-09-28T02:42:23.882Z,0.00
2022-09-28T02:43:23.725Z,0.00
2022-09-28T02:44:23.770Z,0.00
2022-09-28T02:45:23.964Z,0.00
2022-09-28T02:46:23.706Z,0.00
2022-09-28T02:47:23.830Z,0.00
2022-09-28T02:48:41.202Z,0.00
2022-09-28T02:49:23.870Z,0.00
2022-09-28T02:50:23.753Z,0.00
2022-09-28T02:51:23.606Z,0.00
2022-09-28T02:52:23.581Z,0.00
2022-09-28T02:53:23.576Z,0.00
2022-09-28T02:54:23.545Z,0.00
2022-09-28T02:55:23.651Z,0.00
2022-09-28T02:56:23.755Z,0.00
2022-09-28T02:57:23.528Z,0.00
2022-09-28T02:58:23.628Z,0.00
2022-09-28T02:59:23.498Z,0.00
2022-09-28T03:00:23.497Z,0.00
2022-09-28T03:01:23.550Z,0.00
2022-09-28T03:02:23.791Z,0.00
2022-09-28T03:03:23.505Z,0.00
2022-09-28T03:04:23.465Z,0.00
2022-09-28T03:05:23.458Z,0.00
2022-09-28T03:06:23.411Z,0.00
2022-09-28T03:07:23.452Z,0.00
2022-09-28T03:08:23.403Z,0.00
2022-09-28T03:09:23.407Z,0.00
2022-09-28T03:10:23.394Z,0.00
2022-09-28T03:11:23.360Z,0.00
2022-09-28T03:12:23.349Z,0.00
2022-09-28T03:13:23.402Z,0.00
2022-09-28T03:14:23.420Z,0.00
2022-09-28T03:15:23.357Z,0.00
2022-09-28T03:16:23.392Z,0.00
2022-09-28T03:17:23.338Z,0.00
2022-09-28T03:18:23.287Z,0.00
2022-09-28T03:19:23.347Z,0.00
2022-09-28T03:20:23.376Z,0.00
2022-09-28T03:21:23.302Z,0.00
2022-09-28T03:22:23.230Z,0.00
2022-09-28T03:23:25.042Z,0.00
2022-09-28T03:24:23.216Z,0.00
2022-09-28T03:25:23.258Z,0.00
2022-09-28T03:26:23.265Z,0.00
2022-09-28T03:27:23.255Z,0.00
2022-09-28T03:28:23.214Z,0.00
2022-09-28T03:29:23.188Z,0.00
2022-09-28T03:30:23.150Z,0.00
2022-09-28T03:31:23.228Z,0.00
2022-09-28T03:32:23.167Z,0.00
2022-09-28T03:33:23.233Z,0.00
2022-09-28T03:34:23.112Z,0.00
2022-09-28T03:35:23.084Z,0.00
2022-09-28T03:36:23.070Z,0.00
2022-09-28T03:37:23.187Z,0.00
2022-09-28T03:38:23.125Z,0.00
2022-09-28T03:39:23.121Z,0.00
2022-09-28T03:40:23.182Z,0.00
2022-09-28T03:41:23.016Z,0.00
2022-09-28T03:42:23.009Z,0.00
2022-09-28T03:43:23.026Z,0.00
2022-09-28T03:44:23.986Z,0.00
2022-09-28T03:45:22.970Z,0.00
2022-09-28T03:46:22.963Z,0.00
2022-09-28T03:47:22.952Z,0.00
2022-09-28T03:48:25.811Z,0.00
2022-09-28T03:49:22.963Z,0.00
2022-09-28T03:50:22.979Z,0.00
2022-09-28T03:51:22.952Z,0.00
2022-09-28T03:52:22.896Z,0.00
2022-09-28T03:53:22.943Z,0.00
2022-09-28T03:54:22.877Z,0.00
2022-09-28T03:55:23.014Z,0.00
2022-09-28T03:56:22.887Z,0.00
2022-09-28T03:57:22.905Z,0.00
2022-09-28T03:58:23.829Z,0.00
2022-09-28T03:59:22.808Z,0.00
2022-09-28T04:00:22.823Z,0.00
2022-09-28T04:01:22.885Z,0.00
2022-09-28T04:02:23.612Z,0.00
2022-09-28T04:03:22.786Z,0.00
2022-09-28T04:04:22.875Z,0.00
2022-09-28T04:05:22.758Z,0.00
2022-09-28T04:06:22.745Z,0.00
2022-09-28T04:07:22.791Z,0.00
2022-09-28T04:08:22.821Z,0.00
2022-09-28T04:09:23.483Z,0.00
2022-09-28T04:10:22.694Z,0.00
2022-09-28T04:11:22.711Z,0.00
2022-09-28T04:12:22.672Z,0.00
2022-09-28T04:13:23.071Z,0.00
2022-09-28T04:14:22.679Z,0.00
2022-09-28T04:15:22.668Z,0.00
2022-09-28T04:16:22.732Z,0.00
2022-09-28T04:17:22.646Z,0.00
2022-09-28T04:18:22.670Z,0.00
2022-09-28T04:19:22.620Z,0.00
2022-09-28T04:20:23.607Z,0.00
2022-09-28T04:21:22.583Z,0.00
2022-09-28T04:22:22.696Z,0.00
2022-09-28T04:23:22.546Z,0.00
2022-09-28T04:24:22.532Z,0.00
2022-09-28T04:25:22.624Z,0.00
2022-09-28T04:26:23.060Z,0.00
2022-09-28T04:27:22.505Z,0.00
2022-09-28T04:28:22.528Z,0.00
2022-09-28T04:29:22.904Z,0.00
2022-09-28T04:30:22.477Z,0.00
2022-09-28T04:31:22.623Z,0.00
2022-09-28T04:32:22.445Z,0.00
2022-09-28T04:33:22.467Z,0.00
2022-09-28T04:34:22.498Z,0.00
2022-09-28T04:35:22.402Z,0.00
2022-09-28T04:36:22.407Z,0.00
2022-09-28T04:37:22.473Z,0.00
2022-09-28T04:38:35.891Z,0.00
2022-09-28T04:39:22.385Z,0.00
2022-09-28T04:40:22.434Z,0.00
2022-09-28T04:41:22.651Z,0.00
2022-09-28T04:42:22.339Z,0.00
2022-09-28T04:43:22.363Z,0.00
2022-09-28T04:44:22.408Z,0.00
2022-09-28T04:45:22.358Z,0.00
2022-09-28T04:46:22.293Z,0.00
2022-09-28T04:47:22.266Z,0.00
2022-09-28T04:48:22.279Z,0.00
2022-09-28T04:49:22.352Z,0.00
2022-09-28T04:50:22.258Z,0.00
2022-09-28T04:51:22.270Z,0.00
2022-09-28T04:52:22.239Z,0.00
2022-09-28T04:53:22.622Z,0.00
2022-09-28T04:54:22.217Z,4.00
2022-09-28T04:55:22.216Z,4.00
2022-09-28T04:56:23.977Z,4.00
2022-09-28T04:57:22.190Z,4.00
2022-09-28T04:58:22.166Z,4.00
2022-09-28T04:59:22.140Z,4.00
2022-09-28T05:00:22.138Z,8.00
2022-09-28T05:01:22.319Z,8.00
2022-09-28T05:02:22.202Z,8.00
2022-09-28T05:03:22.088Z,12.00
2022-09-28T05:04:25.852Z,12.00
2022-09-28T05:05:22.095Z,16.00
2022-09-28T05:06:22.067Z,20.00
2022-09-28T05:07:22.094Z,20.00
2022-09-28T05:08:22.119Z,28.00
2022-09-28T05:09:22.042Z,32.00
2022-09-28T05:10:22.006Z,36.00
2022-09-28T05:11:22.019Z,40.00
2022-09-28T05:12:21.990Z,52.00
2022-09-28T05:13:22.020Z,56.00
2022-09-28T05:14:21.969Z,64.00
2022-09-28T05:15:22.031Z,68.00
2022-09-28T05:16:21.982Z,80.00
2022-09-28T05:17:21.928Z,92.00
2022-09-28T05:18:21.911Z,100.00
2022-09-28T05:19:21.935Z,112.00
2022-09-28T05:20:21.938Z,124.00
2022-09-28T05:21:21.898Z,140.00
2022-09-28T05:22:21.885Z,152.00
2022-09-28T05:23:21.872Z,168.00
2022-09-28T05:24:21.863Z,180.00
2022-09-28T05:25:21.900Z,200.00
2022-09-28T05:26:21.882Z,216.00
2022-09-28T05:27:21.848Z,236.00
2022-09-28T05:28:21.908Z,260.00
2022-09-28T05:29:32.050Z,284.00
2022-09-28T05:30:28.143Z,308.00
2022-09-28T05:31:28.331Z,340.00
2022-09-28T05:32:22.626Z,376.00
2022-09-28T05:33:21.757Z,412.00
2022-09-28T05:34:21.749Z,448.00
2022-09-28T05:35:21.730Z,480.00
2022-09-28T05:36:21.767Z,516.00
2022-09-28T05:37:21.708Z,552.00
2022-09-28T05:38:21.732Z,584.00
2022-09-28T05:39:21.691Z,624.00
2022-09-28T05:40:21.853Z,668.00
2022-09-28T05:41:21.709Z,716.00
2022-09-28T05:42:21.693Z,768.00
2022-09-28T05:43:21.752Z,836.00
2022-09-28T05:44:21.687Z,912.00
2022-09-28T05:45:21.617Z,1000.00
2022-09-28T05:46:22.702Z,1080.00
2022-09-28T05:47:22.091Z,1148.00
2022-09-28T05:48:21.616Z,1208.00
2022-09-28T05:49:21.577Z,1264.00
2022-09-28T05:50:21.572Z,1308.00
2022-09-28T05:51:21.548Z,1348.00
2022-09-28T05:52:21.549Z,1384.00
2022-09-28T05:53:21.531Z,1424.00
2022-09-28T05:54:21.557Z,1476.00
2022-09-28T05:55:21.519Z,1548.00
2022-09-28T05:56:21.520Z,1600.00
2022-09-28T05:57:21.555Z,1648.00
2022-09-28T05:58:21.483Z,1708.00
2022-09-28T05:59:21.457Z,1740.00
2022-09-28T06:00:21.482Z,1784.00
2022-09-28T06:01:21.471Z,1796.00
2022-09-28T06:02:22.210Z,1840.00
2022-09-28T06:03:21.503Z,1892.00
2022-09-28T06:04:21.505Z,1940.00
2022-09-28T06:05:21.452Z,1992.00
2022-09-28T06:06:21.486Z,2036.00
2022-09-28T06:07:21.421Z,2084.00
2022-09-28T06:08:21.442Z,2124.00
2022-09-28T06:09:25.716Z,2176.00
2022-09-28T06:10:21.342Z,2220.00
2022-09-28T06:11:21.421Z,2256.00
2022-09-28T06:12:21.353Z,2304.00
2022-09-28T06:13:21.319Z,2328.00
2022-09-28T06:14:21.292Z,2388.00
2022-09-28T06:15:21.360Z,2424.00
2022-09-28T06:16:21.313Z,2460.00
2022-09-28T06:17:21.290Z,2508.00
2022-09-28T06:18:21.295Z,2568.00
2022-09-28T06:19:21.280Z,2628.00
2022-09-28T06:20:21.342Z,2680.00
2022-09-28T06:21:22.613Z,2716.00
2022-09-28T06:22:21.382Z,2764.00
2022-09-28T06:23:21.195Z,2784.00
2022-09-28T06:24:22.113Z,2808.00
2022-09-28T06:25:21.161Z,2828.00
2022-09-28T06:26:21.204Z,2844.00
2022-09-28T06:27:21.165Z,2852.00
2022-09-28T06:28:21.155Z,2860.00
2022-09-28T06:29:21.171Z,2864.00
2022-09-28T06:30:21.170Z,2864.00
2022-09-28T06:31:21.230Z,2872.00
2022-09-28T06:32:21.246Z,2884.00
2022-09-28T06:33:21.118Z,2936.00
2022-09-28T06:34:21.130Z,2964.00
2022-09-28T06:35:21.108Z,2940.00
2022-09-28T06:36:21.255Z,2944.00
2022-09-28T06:37:21.055Z,2976.00
2022-09-28T06:38:21.117Z,2952.00
2022-09-28T06:39:21.056Z,3000.00
2022-09-28T06:40:21.077Z,3028.00
2022-09-28T06:41:21.338Z,3060.00
2022-09-28T06:42:21.471Z,3068.00
2022-09-28T06:43:21.554Z,3092.00
2022-09-28T06:44:21.061Z,3100.00
2022-09-28T06:45:21.132Z,3128.00
2022-09-28T06:46:21.113Z,3164.00
2022-09-28T06:47:21.221Z,3208.00
2022-09-28T06:48:21.464Z,3268.00
2022-09-28T06:49:20.930Z,3276.00
2022-09-28T06:50:20.936Z,3300.00
2022-09-28T06:51:21.243Z,3300.00
2022-09-28T06:52:21.359Z,3324.00
2022-09-28T06:53:21.162Z,3360.00
2022-09-28T06:54:21.383Z,3508.00
2022-09-28T06:55:21.255Z,3616.00
2022-09-28T06:56:22.214Z,3500.00
2022-09-28T06:57:21.908Z,3476.00
2022-09-28T06:58:21.209Z,3488.00
2022-09-28T06:59:21.169Z,3564.00
2022-09-28T07:00:20.903Z,3828.00
2022-09-28T07:01:20.953Z,4108.00
2022-09-28T07:02:20.899Z,4500.00
2022-09-28T07:03:20.734Z,4524.00
2022-09-28T07:04:20.720Z,4632.00
2022-09-28T07:05:20.711Z,5276.00
2022-09-28T07:06:20.772Z,4856.00
2022-09-28T07:07:20.836Z,4812.00
2022-09-28T07:08:20.804Z,4200.00
2022-09-28T07:09:31.266Z,3968.00
2022-09-28T07:10:20.708Z,4028.00
2022-09-28T07:11:20.649Z,4052.00
2022-09-28T07:12:20.684Z,4112.00
2022-09-28T07:13:46.212Z,4144.00
2022-09-28T07:14:41.522Z,4160.00
2022-09-28T07:15:20.656Z,4224.00
2022-09-28T07:16:25.696Z,4344.00
2022-09-28T07:17:22.238Z,4500.00
2022-09-28T07:18:28.649Z,4616.00
2022-09-28T07:19:20.662Z,4820.00
2022-09-28T07:20:20.751Z,4896.00
2022-09-28T07:21:28.770Z,4980.00
2022-09-28T07:22:33.626Z,5084.00
2022-09-28T07:23:20.533Z,5240.00
2022-09-28T07:24:20.693Z,5388.00
2022-09-28T07:25:20.639Z,5672.00
2022-09-28T07:26:23.699Z,5728.00
2022-09-28T07:27:20.477Z,5816.00
2022-09-28T07:28:20.535Z,5852.00
2022-09-28T07:29:21.084Z,6156.00
2022-09-28T07:30:20.747Z,6216.00
2022-09-28T07:31:20.469Z,6328.00
2022-09-28T07:32:20.552Z,6604.00
2022-09-28T07:33:20.450Z,7024.00
2022-09-28T07:34:20.425Z,6884.00
2022-09-28T07:35:20.369Z,7344.00
2022-09-28T07:36:20.428Z,7424.00
2022-09-28T07:37:20.414Z,7528.00
2022-09-28T07:38:20.469Z,7900.00
2022-09-28T07:39:20.344Z,8000.00
2022-09-28T07:40:20.419Z,8448.00
2022-09-28T07:41:20.364Z,8428.00
2022-09-28T07:42:20.376Z,8676.00
2022-09-28T07:43:21.113Z,8728.00
2022-09-28T07:44:20.266Z,8684.00
2022-09-28T07:45:20.291Z,8680.00
2022-09-28T07:46:20.286Z,8636.00
2022-09-28T07:47:20.246Z,8720.00
2022-09-28T07:48:20.377Z,8732.00
2022-09-28T07:49:20.350Z,8760.00
2022-09-28T07:50:20.213Z,8652.00
2022-09-28T07:51:20.974Z,8660.00
2022-09-28T07:52:20.179Z,8668.00
2022-09-28T07:53:21.248Z,8720.00
2022-09-28T07:54:20.290Z,8900.00
2022-09-28T07:55:20.150Z,9092.00
2022-09-28T07:56:20.127Z,9200.00
2022-09-28T07:57:20.124Z,9116.00
2022-09-28T07:58:20.108Z,9452.00
2022-09-28T07:59:20.107Z,9204.00
2022-09-28T08:00:20.317Z,9172.00
2022-09-28T08:01:20.227Z,9028.00
2022-09-28T08:02:20.155Z,8876.00
2022-09-28T08:03:20.114Z,8700.00
2022-09-28T08:04:20.041Z,8580.00
2022-09-28T08:05:20.043Z,8444.00
2022-09-28T08:06:20.087Z,8556.00
2022-09-28T08:07:23.694Z,8600.00
2022-09-28T08:08:19.999Z,8656.00
2022-09-28T08:09:19.992Z,8648.00
2022-09-28T08:10:19.969Z,8900.00
2022-09-28T08:11:19.985Z,9012.00
2022-09-28T08:12:20.590Z,9252.00
2022-09-28T08:13:22.258Z,10116.00
2022-09-28T08:14:19.987Z,10304.00
2022-09-28T08:15:19.928Z,10596.00
2022-09-28T08:16:19.927Z,11160.00
2022-09-28T08:17:20.647Z,11528.00
2022-09-28T08:18:21.894Z,11776.00
2022-09-28T08:19:20.139Z,12304.00
2022-09-28T08:20:19.868Z,12108.00
2022-09-28T08:21:19.854Z,11680.00
2022-09-28T08:22:19.860Z,11252.00
2022-09-28T08:23:19.837Z,11444.00
2022-09-28T08:24:19.980Z,11036.00
2022-09-28T08:25:20.554Z,11488.00
2022-09-28T08:26:20.527Z,11752.00
2022-09-28T08:27:22.559Z,11988.00
2022-09-28T08:28:19.788Z,12140.00
2022-09-28T08:29:19.759Z,12304.00
2022-09-28T08:30:21.281Z,12696.00
2022-09-28T08:31:19.820Z,13096.00
2022-09-28T08:32:20.625Z,13524.00
2022-09-28T08:33:19.743Z,14092.00
2022-09-28T08:34:19.753Z,14760.00
2022-09-28T08:35:19.696Z,15340.00
2022-09-28T08:36:19.759Z,16088.00
2022-09-28T08:37:19.698Z,16828.00
2022-09-28T08:38:19.958Z,17472.00
2022-09-28T08:39:20.022Z,17792.00
2022-09-28T08:40:19.719Z,18560.00
2022-09-28T08:41:20.671Z,18112.00
2022-09-28T08:42:19.698Z,17984.00
2022-09-28T08:43:19.897Z,17344.00
2022-09-28T08:44:19.583Z,17056.00
2022-09-28T08:45:20.098Z,16652.00
2022-09-28T08:46:22.775Z,16424.00
2022-09-28T08:47:19.643Z,16268.00
2022-09-28T08:48:19.606Z,16024.00
2022-09-28T08:49:26.860Z,16548.00
2022-09-28T08:50:19.525Z,15440.00
2022-09-28T08:51:19.552Z,15408.00
2022-09-28T08:52:19.601Z,15724.00
2022-09-28T08:53:19.551Z,15236.00
2022-09-28T08:54:19.591Z,15952.00
2022-09-28T08:55:19.466Z,15184.00
2022-09-28T08:56:19.509Z,14176.00
2022-09-28T08:57:21.029Z,14580.00
2022-09-28T08:58:19.484Z,13848.00
2022-09-28T08:59:19.474Z,14400.00
2022-09-28T09:00:19.874Z,14060.00
2022-09-28T09:01:19.448Z,13396.00
2022-09-28T09:02:19.441Z,13832.00
2022-09-28T09:03:19.387Z,13892.00
2022-09-28T09:04:19.609Z,11708.00
2022-09-28T09:05:19.401Z,11208.00
2022-09-28T09:06:19.382Z,12096.00
2022-09-28T09:07:19.336Z,13016.00
2022-09-28T09:08:20.123Z,11964.00
2022-09-28T09:09:19.337Z,11376.00
2022-09-28T09:10:19.332Z,11760.00
2022-09-28T09:11:21.211Z,11664.00
2022-09-28T09:12:19.431Z,12172.00
2022-09-28T09:13:19.283Z,11960.00
2022-09-28T09:14:20.339Z,11404.00
2022-09-28T09:15:19.271Z,11000.00
2022-09-28T09:16:19.321Z,11556.00
2022-09-28T09:17:19.460Z,11736.00
2022-09-28T09:18:20.033Z,11964.00
2022-09-28T09:19:19.273Z,12160.00
2022-09-28T09:20:19.202Z,11664.00
2022-09-28T09:21:19.224Z,11368.00
2022-09-28T09:22:19.155Z,11388.00
2022-09-28T09:23:19.327Z,11240.00
2022-09-28T09:24:19.547Z,10732.00
2022-09-28T09:25:19.269Z,10628.00
2022-09-28T09:26:24.044Z,10220.00
2022-09-28T09:27:19.239Z,10660.00
2022-09-28T09:28:19.537Z,10496.00
2022-09-28T09:29:19.203Z,10584.00
2022-09-28T09:30:20.558Z,10268.00
2022-09-28T09:31:22.591Z,10684.00
2022-09-28T09:32:19.269Z,9808.00
2022-09-28T09:33:19.371Z,10616.00
2022-09-28T09:34:19.489Z,10480.00
2022-09-28T09:35:21.794Z,9396.00
2022-09-28T09:36:19.322Z,10216.00
2022-09-28T09:37:19.329Z,12216.00
2022-09-28T09:38:19.490Z,9736.00
2022-09-28T09:39:18.971Z,12700.00
2022-09-28T09:40:19.219Z,14412.00
2022-09-28T09:41:19.380Z,10468.00
2022-09-28T09:42:19.395Z,9776.00
2022-09-28T09:43:19.120Z,8820.00
2022-09-28T09:44:19.481Z,8668.00
2022-09-28T09:45:19.430Z,8248.00
2022-09-28T09:46:19.387Z,8096.00
2022-09-28T09:47:19.250Z,8560.00
2022-09-28T09:48:19.006Z,7992.00
2022-09-28T09:49:19.018Z,8060.00
2022-09-28T09:50:19.192Z,7900.00
2022-09-28T09:51:19.074Z,7924.00
2022-09-28T09:52:19.125Z,8012.00
2022-09-28T09:53:18.941Z,8856.00
2022-09-28T09:54:19.023Z,7896.00
2022-09-28T09:55:19.211Z,7948.00
2022-09-28T09:56:19.093Z,8016.00
2022-09-28T09:57:19.167Z,8180.00
2022-09-28T09:58:19.005Z,8196.00
2022-09-28T09:59:19.308Z,8296.00
2022-09-28T10:00:19.115Z,8728.00
2022-09-28T10:01:19.114Z,9508.00
2022-09-28T10:02:19.046Z,8760.00
2022-09-28T10:03:18.786Z,8752.00
2022-09-28T10:04:18.837Z,8708.00
2022-09-28T10:05:18.802Z,8872.00
2022-09-28T10:06:18.795Z,8956.00
2022-09-28T10:07:18.910Z,9028.00
2022-09-28T10:08:18.658Z,8900.00
2022-09-28T10:09:19.015Z,8900.00
2022-09-28T10:10:18.966Z,8912.00
2022-09-28T10:11:18.898Z,8940.00
2022-09-28T10:12:18.926Z,8900.00
2022-09-28T10:13:18.720Z,8912.00
2022-09-28T10:14:19.083Z,8964.00
2022-09-28T10:15:19.273Z,9068.00
2022-09-28T10:16:18.757Z,9140.00
2022-09-28T10:17:20.326Z,9160.00
2022-09-28T10:18:18.968Z,9260.00
2022-09-28T10:19:18.909Z,9280.00
2022-09-28T10:20:18.663Z,9192.00
2022-09-28T10:21:18.630Z,9272.00
2022-09-28T10:22:18.715Z,9228.00
2022-09-28T10:23:18.611Z,9108.00
2022-09-28T10:24:18.596Z,9072.00
2022-09-28T10:25:18.752Z,9136.00
2022-09-28T10:26:22.798Z,9128.00
2022-09-28T10:27:18.929Z,9276.00
2022-09-28T10:28:18.577Z,9300.00
2022-09-28T10:29:18.643Z,9264.00
2022-09-28T10:30:19.143Z,9088.00
2022-09-28T10:31:18.517Z,8964.00
2022-09-28T10:32:18.583Z,8956.00
2022-09-28T10:33:18.561Z,9064.00
2022-09-28T10:34:18.549Z,9324.00
2022-09-28T10:35:18.453Z,9724.00
2022-09-28T10:36:18.495Z,10236.00
2022-09-28T10:37:18.403Z,10804.00
2022-09-28T10:38:18.395Z,11380.00
2022-09-28T10:39:18.394Z,11852.00
2022-09-28T10:40:18.639Z,12252.00
2022-09-28T10:41:18.364Z,12660.00
2022-09-28T10:42:18.509Z,12980.00
2022-09-28T10:43:18.346Z,13312.00
2022-09-28T10:44:18.479Z,13700.00
2022-09-28T10:45:18.699Z,14204.00
2022-09-28T10:46:18.313Z,14592.00
2022-09-28T10:47:18.248Z,14804.00
2022-09-28T10:48:18.348Z,14744.00
2022-09-28T10:49:18.234Z,14540.00
2022-09-28T10:50:18.214Z,14312.00
2022-09-28T10:51:18.339Z,14016.00
2022-09-28T10:52:18.276Z,13800.00
2022-09-28T10:53:18.144Z,13588.00
2022-09-28T10:54:18.635Z,13344.00
2022-09-28T10:55:18.148Z,12980.00
2022-09-28T10:56:18.219Z,12828.00
2022-09-28T10:57:18.314Z,12736.00
2022-09-28T10:58:18.221Z,12760.00
2022-09-28T10:59:18.303Z,12908.00
2022-09-28T11:00:18.292Z,13100.00
2022-09-28T11:01:18.263Z,13388.00
2022-09-28T11:02:18.256Z,13668.00
2022-09-28T11:03:18.237Z,13696.00
2022-09-28T11:04:18.179Z,13804.00
2022-09-28T11:05:18.648Z,14304.00
2022-09-28T11:06:18.026Z,14776.00
2022-09-28T11:07:18.109Z,15220.00
2022-09-28T11:08:18.698Z,15720.00
2022-09-28T11:09:19.139Z,16272.00
2022-09-28T11:10:18.236Z,16736.00
2022-09-28T11:11:18.329Z,17144.00
2022-09-28T11:12:18.203Z,17440.00
2022-09-28T11:13:18.162Z,18048.00
2022-09-28T11:14:18.192Z,18528.00
2022-09-28T11:15:18.063Z,19072.00
2022-09-28T11:16:18.066Z,19712.00
2022-09-28T11:17:18.027Z,20384.00
2022-09-28T11:18:18.091Z,20928.00
2022-09-28T11:19:17.979Z,21088.00
2022-09-28T11:20:18.286Z,21280.00
2022-09-28T11:21:18.206Z,21696.00
2022-09-28T11:22:18.234Z,21568.00
2022-09-28T11:23:18.058Z,21600.00
2022-09-28T11:24:19.547Z,21696.00
2022-09-28T11:25:17.932Z,21728.00
2022-09-28T11:26:18.911Z,21888.00
2022-09-28T11:27:17.731Z,22208.00
2022-09-28T11:28:17.732Z,22432.00
2022-09-28T11:29:17.869Z,22464.00
2022-09-28T11:30:18.230Z,22336.00
2022-09-28T11:31:18.160Z,22176.00
2022-09-28T11:32:18.120Z,21728.00
2022-09-28T11:33:17.733Z,21440.00
2022-09-28T11:34:18.320Z,21056.00
2022-09-28T11:35:17.746Z,20928.00
2022-09-28T11:36:17.856Z,20928.00
2022-09-28T11:37:17.841Z,21120.00
2022-09-28T11:38:17.615Z,21824.00
2022-09-28T11:39:17.704Z,22240.00
2022-09-28T11:40:18.155Z,21536.00
2022-09-28T11:41:17.592Z,21152.00
2022-09-28T11:42:17.616Z,20672.00
2022-09-28T11:43:17.563Z,19488.00
2022-09-28T11:44:17.810Z,18720.00
2022-09-28T11:45:17.564Z,18240.00
2022-09-28T11:46:17.710Z,17888.00
2022-09-28T11:47:17.558Z,17632.00
2022-09-28T11:48:17.714Z,16992.00
2022-09-28T11:49:18.110Z,16300.00
2022-09-28T11:50:21.457Z,15192.00
2022-09-28T11:51:17.761Z,14344.00
2022-09-28T11:52:17.587Z,13776.00
2022-09-28T11:53:17.492Z,13428.00
2022-09-28T11:54:17.690Z,13228.00
2022-09-28T11:55:17.481Z,12836.00
2022-09-28T11:56:18.578Z,12380.00
2022-09-28T11:57:17.492Z,11900.00
2022-09-28T11:58:17.511Z,11292.00
2022-09-28T11:59:17.482Z,10728.00
2022-09-28T12:00:17.419Z,10228.00
2022-09-28T12:01:19.018Z,9876.00
2022-09-28T12:02:17.514Z,9560.00
2022-09-28T12:03:17.550Z,9272.00
2022-09-28T12:04:17.599Z,8984.00
2022-09-28T12:05:20.934Z,8628.00
2022-09-28T12:06:17.328Z,8316.00
2022-09-28T12:07:17.412Z,8080.00
2022-09-28T12:08:17.310Z,7912.00
2022-09-28T12:09:17.334Z,7704.00
2022-09-28T12:10:17.437Z,7452.00
2022-09-28T12:11:17.343Z,7220.00
2022-09-28T12:12:17.494Z,6976.00
2022-09-28T12:13:17.617Z,6708.00
2022-09-28T12:14:17.286Z,6472.00
2022-09-28T12:15:17.231Z,6376.00
2022-09-28T12:16:38.980Z,6232.00
2022-09-28T12:17:20.131Z,6188.00
2022-09-28T12:18:17.415Z,6208.00
2022-09-28T12:19:17.248Z,6156.00
2022-09-28T12:20:17.242Z,6044.00
2022-09-28T12:21:17.197Z,5952.00
2022-09-28T12:22:17.154Z,5832.00
2022-09-28T12:23:17.511Z,5716.00
2022-09-28T12:24:17.580Z,5616.00
2022-09-28T12:25:17.346Z,5536.00
2022-09-28T12:26:17.379Z,5460.00
2022-09-28T12:27:18.143Z,5408.00
2022-09-28T12:28:17.153Z,5364.00
2022-09-28T12:29:23.621Z,5328.00